PWSweather.com
Personal Weather Stations
Station Observations
KAZTUCSO57
Countryside Manor, Tucson, AZ 85742

Countryside ManorTucson, AZ 85742

Lat: 32.3692, Lon: -111.066

Elevation: 2307

Station Type: Davis VP Pro+ 6163

http://frogville.us

High Low Average
Temperature 75.5°F24.2°C 44.7°F7.1°C 61.5°F16.4°C
Dew Point 41.1°F5.1°C 27.4°F-2.6°C 33.0°F0.6°C
Winds 5.8 mph 9.3 kmh Calm Calm 2.0 mph SSW3.2 kmh SSW
Wind Gusts 11.5 mph18.5 kmh -- 3.0 mph4.8 kmh
Humidity 58% 22% 36%
Pressure 29.93 in1013.5 mb 29.80 in1009.1 mb -
Precipitation 0.00 in0.0 mm - -
Hour Temp Dew Point Humidity Winds Wind Gusts Pressure Precip Precip Rate Daily Precip Total
12:00 AM 58.7°F14.8°C 28.1°F-2.2°C 31% Calm Calm 2.3 mph3.7 kmh 29.87 in1011.5 mb - 0.00 in0.0 mm 0.00 in0.0 mm
12:10 AM 58.4°F14.7°C 27.9°F-2.3°C 31% Calm Calm 1.2 mph1.9 kmh 29.87 in1011.5 mb - 0.00 in0.0 mm 0.00 in0.0 mm
12:20 AM 58.1°F14.5°C 27.6°F-2.4°C 31% 1.2 mph W1.9 kmh W 2.3 mph3.7 kmh 29.87 in1011.5 mb - 0.00 in0.0 mm 0.00 in0.0 mm
12:30 AM 57.9°F14.4°C 27.4°F-2.6°C 31% Calm Calm 1.2 mph1.9 kmh 29.88 in1011.9 mb - 0.00 in0.0 mm 0.00 in0.0 mm
12:40 AM 57.6°F14.2°C 27.9°F-2.3°C 32% Calm Calm -- 29.88 in1011.9 mb - 0.00 in0.0 mm 0.00 in0.0 mm
12:50 AM 57.3°F14.1°C 27.7°F-2.4°C 32% Calm Calm 1.2 mph1.9 kmh 29.88 in1011.9 mb - 0.00 in0.0 mm 0.00 in0.0 mm
01:00 AM 56.8°F13.8°C 28.0°F-2.2°C 33% Calm Calm -- 29.88 in1011.9 mb - 0.00 in0.0 mm 0.00 in0.0 mm
01:10 AM 56.5°F13.6°C 28.4°F-2.0°C 34% Calm Calm -- 29.88 in1011.9 mb - 0.00 in0.0 mm 0.00 in0.0 mm
01:20 AM 55.9°F13.3°C 28.6°F-1.9°C 35% Calm Calm -- 29.88 in1011.9 mb - 0.00 in0.0 mm 0.00 in0.0 mm
01:30 AM 54.5°F12.5°C 28.7°F-1.8°C 37% Calm Calm 1.2 mph1.9 kmh 29.88 in1011.9 mb - 0.00 in0.0 mm 0.00 in0.0 mm
01:40 AM 54.2°F12.3°C 29.1°F-1.6°C 38% Calm Calm 1.2 mph1.9 kmh 29.88 in1011.9 mb - 0.00 in0.0 mm 0.00 in0.0 mm
01:50 AM 53.7°F12.1°C 28.7°F-1.8°C 38% Calm Calm 1.2 mph1.9 kmh 29.87 in1011.5 mb - 0.00 in0.0 mm 0.00 in0.0 mm
02:00 AM 52.7°F11.5°C 28.4°F-2.0°C 39% Calm Calm -- 29.87 in1011.5 mb - 0.00 in0.0 mm 0.00 in0.0 mm
02:10 AM 52.0°F11.1°C 29.6°F-1.3°C 42% Calm Calm -- 29.88 in1011.9 mb - 0.00 in0.0 mm 0.00 in0.0 mm
02:20 AM 51.4°F10.8°C 29.6°F-1.3°C 43% Calm Calm -- 29.87 in1011.5 mb - 0.00 in0.0 mm 0.00 in0.0 mm
02:30 AM 50.9°F10.5°C 29.2°F-1.6°C 43% Calm Calm -- 29.87 in1011.5 mb - 0.00 in0.0 mm 0.00 in0.0 mm
02:40 AM 50.5°F10.3°C 28.3°F-2.1°C 42% 1.2 mph W1.9 kmh W 2.3 mph3.7 kmh 29.87 in1011.5 mb - 0.00 in0.0 mm 0.00 in0.0 mm
02:50 AM 50.4°F10.2°C 28.7°F-1.8°C 43% Calm Calm -- 29.86 in1011.2 mb - 0.00 in0.0 mm 0.00 in0.0 mm
03:00 AM 50.0°F10.0°C 29.5°F-1.4°C 45% Calm Calm -- 29.86 in1011.2 mb - 0.00 in0.0 mm 0.00 in0.0 mm
03:10 AM 49.6°F9.8°C 30.2°F-1.0°C 47% Calm Calm -- 29.86 in1011.2 mb - 0.00 in0.0 mm 0.00 in0.0 mm
03:20 AM 49.3°F9.6°C 30.5°F-0.8°C 48% Calm Calm 1.2 mph1.9 kmh 29.86 in1011.2 mb - 0.00 in0.0 mm 0.00 in0.0 mm
03:30 AM 49.0°F9.4°C 30.6°F-0.8°C 49% Calm Calm 1.2 mph1.9 kmh 29.86 in1011.2 mb - 0.00 in0.0 mm 0.00 in0.0 mm
03:40 AM 48.6°F9.2°C 30.8°F-0.7°C 50% Calm Calm 1.2 mph1.9 kmh 29.86 in1011.2 mb - 0.00 in0.0 mm 0.00 in0.0 mm
03:50 AM 48.2°F9.0°C 30.9°F-0.6°C 51% Calm Calm 1.2 mph1.9 kmh 29.86 in1011.2 mb - 0.00 in0.0 mm 0.00 in0.0 mm
04:00 AM 48.1°F8.9°C 30.3°F-0.9°C 50% Calm Calm 1.2 mph1.9 kmh 29.86 in1011.2 mb - 0.00 in0.0 mm 0.00 in0.0 mm
04:10 AM 48.1°F8.9°C 30.3°F-0.9°C 50% 1.2 mph NNE1.9 kmh NNE 2.3 mph3.7 kmh 29.86 in1011.2 mb - 0.00 in0.0 mm 0.00 in0.0 mm
04:20 AM 48.1°F8.9°C 30.3°F-0.9°C 50% 1.2 mph NNE1.9 kmh NNE 2.3 mph3.7 kmh 29.86 in1011.2 mb - 0.00 in0.0 mm 0.00 in0.0 mm
04:30 AM 47.9°F8.8°C 31.1°F-0.5°C 52% Calm Calm 1.2 mph1.9 kmh 29.87 in1011.5 mb - 0.00 in0.0 mm 0.00 in0.0 mm
04:40 AM 47.6°F8.7°C 30.3°F-0.9°C 51% 1.2 mph NE1.9 kmh NE 2.3 mph3.7 kmh 29.86 in1011.2 mb - 0.00 in0.0 mm 0.00 in0.0 mm
04:50 AM 47.3°F8.5°C 30.6°F-0.8°C 52% Calm Calm 1.2 mph1.9 kmh 29.86 in1011.2 mb - 0.00 in0.0 mm 0.00 in0.0 mm
05:00 AM 47.2°F8.4°C 30.9°F-0.6°C 53% Calm Calm 1.2 mph1.9 kmh 29.87 in1011.5 mb - 0.00 in0.0 mm 0.00 in0.0 mm
05:10 AM 46.9°F8.3°C 30.6°F-0.8°C 53% Calm Calm 1.2 mph1.9 kmh 29.87 in1011.5 mb - 0.00 in0.0 mm 0.00 in0.0 mm
05:20 AM 46.8°F8.2°C 30.6°F-0.8°C 53% Calm Calm -- 29.88 in1011.9 mb - 0.00 in0.0 mm 0.00 in0.0 mm
05:30 AM 46.4°F8.0°C 30.2°F-1.0°C 53% Calm Calm -- 29.88 in1011.9 mb - 0.00 in0.0 mm 0.00 in0.0 mm
05:40 AM 45.7°F7.6°C 30.4°F-0.9°C 55% Calm Calm 1.2 mph1.9 kmh 29.89 in1012.2 mb - 0.00 in0.0 mm 0.00 in0.0 mm
05:50 AM 45.2°F7.3°C 30.8°F-0.7°C 57% 2.3 mph NE3.7 kmh NE 2.3 mph3.7 kmh 29.89 in1012.2 mb - 0.00 in0.0 mm 0.00 in0.0 mm
06:00 AM 44.9°F7.2°C 30.6°F-0.8°C 57% 1.2 mph NE1.9 kmh NE 2.3 mph3.7 kmh 29.89 in1012.2 mb - 0.00 in0.0 mm 0.00 in0.0 mm
06:10 AM 44.9°F7.2°C 30.6°F-0.8°C 57% 1.2 mph NE1.9 kmh NE 1.2 mph1.9 kmh 29.89 in1012.2 mb - 0.00 in0.0 mm 0.00 in0.0 mm
06:20 AM 45.1°F7.3°C 30.3°F-0.9°C 56% Calm Calm 1.2 mph1.9 kmh 29.90 in1012.5 mb - 0.00 in0.0 mm 0.00 in0.0 mm
06:30 AM 45.1°F7.3°C 30.3°F-0.9°C 56% Calm Calm 2.3 mph3.7 kmh 29.90 in1012.5 mb - 0.00 in0.0 mm 0.00 in0.0 mm
06:40 AM 45.0°F7.2°C 30.7°F-0.7°C 57% Calm Calm 1.2 mph1.9 kmh 29.90 in1012.5 mb - 0.00 in0.0 mm 0.00 in0.0 mm
06:50 AM 44.8°F7.1°C 30.9°F-0.6°C 58% 1.2 mph NE1.9 kmh NE 2.3 mph3.7 kmh 29.91 in1012.9 mb - 0.00 in0.0 mm 0.00 in0.0 mm
07:00 AM 44.7°F7.1°C 30.8°F-0.7°C 58% 1.2 mph NE1.9 kmh NE 1.2 mph1.9 kmh 29.91 in1012.9 mb - 0.00 in0.0 mm 0.00 in0.0 mm
07:10 AM 44.7°F7.1°C 30.8°F-0.7°C 58% 1.2 mph NE1.9 kmh NE 2.3 mph3.7 kmh 29.91 in1012.9 mb - 0.00 in0.0 mm 0.00 in0.0 mm
07:20 AM 45.5°F7.5°C 31.1°F-0.5°C 57% Calm Calm 1.2 mph1.9 kmh 29.91 in1012.9 mb - 0.00 in0.0 mm 0.00 in0.0 mm
07:30 AM 46.2°F7.9°C 31.3°F-0.4°C 56% Calm Calm -- 29.91 in1012.9 mb - 0.00 in0.0 mm 0.00 in0.0 mm
07:40 AM 47.9°F8.8°C 32.0°F0.0°C 54% Calm Calm -- 29.91 in1012.9 mb - 0.00 in0.0 mm 0.00 in0.0 mm
07:50 AM 49.4°F9.7°C 31.5°F-0.3°C 50% Calm Calm 1.2 mph1.9 kmh 29.91 in1012.9 mb - 0.00 in0.0 mm 0.00 in0.0 mm
08:00 AM 50.9°F10.5°C 31.9°F-0.1°C 48% Calm Calm 1.2 mph1.9 kmh 29.92 in1013.2 mb - 0.00 in0.0 mm 0.00 in0.0 mm
08:10 AM 52.8°F11.6°C 32.6°F0.3°C 46% Calm Calm -- 29.92 in1013.2 mb - 0.00 in0.0 mm 0.00 in0.0 mm
08:20 AM 54.6°F12.6°C 32.5°F0.3°C 43% 1.2 mph NE1.9 kmh NE 2.3 mph3.7 kmh 29.92 in1013.2 mb - 0.00 in0.0 mm 0.00 in0.0 mm
08:30 AM 56.0°F13.3°C 32.6°F0.3°C 41% Calm Calm -- 29.92 in1013.2 mb - 0.00 in0.0 mm 0.00 in0.0 mm
08:40 AM 57.6°F14.2°C 32.1°F0.1°C 38% Calm Calm 1.2 mph1.9 kmh 29.92 in1013.2 mb - 0.00 in0.0 mm 0.00 in0.0 mm
08:50 AM 59.7°F15.4°C 32.0°F0.0°C 35% Calm Calm 1.2 mph1.9 kmh 29.93 in1013.5 mb - 0.00 in0.0 mm 0.00 in0.0 mm
09:00 AM 60.9°F16.1°C 31.6°F-0.2°C 33% Calm Calm 1.2 mph1.9 kmh 29.93 in1013.5 mb - 0.00 in0.0 mm 0.00 in0.0 mm
09:10 AM 62.4°F16.9°C 32.1°F0.1°C 32% 1.2 mph E1.9 kmh E 2.3 mph3.7 kmh 29.93 in1013.5 mb - 0.00 in0.0 mm 0.00 in0.0 mm
09:20 AM 63.1°F17.3°C 32.0°F0.0°C 31% Calm Calm 1.2 mph1.9 kmh 29.93 in1013.5 mb - 0.00 in0.0 mm 0.00 in0.0 mm
09:30 AM 63.8°F17.7°C 31.8°F-0.1°C 30% 1.2 mph SW1.9 kmh SW 2.3 mph3.7 kmh 29.93 in1013.5 mb - 0.00 in0.0 mm 0.00 in0.0 mm
09:40 AM 63.6°F17.6°C 31.6°F-0.2°C 30% 2.3 mph NE3.7 kmh NE 2.3 mph3.7 kmh 29.93 in1013.5 mb - 0.00 in0.0 mm 0.00 in0.0 mm
09:50 AM 64.0°F17.8°C 33.5°F0.8°C 32% Calm Calm 2.3 mph3.7 kmh 29.93 in1013.5 mb - 0.00 in0.0 mm 0.00 in0.0 mm
10:00 AM 65.2°F18.4°C 34.6°F1.4°C 32% 2.3 mph SSW3.7 kmh SSW 3.5 mph5.6 kmh 29.93 in1013.5 mb - 0.00 in0.0 mm 0.00 in0.0 mm
10:10 AM 65.4°F18.6°C 34.8°F1.6°C 32% 1.2 mph SSW1.9 kmh SSW 3.5 mph5.6 kmh 29.93 in1013.5 mb - 0.00 in0.0 mm 0.00 in0.0 mm
10:20 AM 66.2°F19.0°C 36.2°F2.3°C 33% 1.2 mph NW1.9 kmh NW 3.5 mph5.6 kmh 29.93 in1013.5 mb - 0.00 in0.0 mm 0.00 in0.0 mm
10:30 AM 67.6°F19.8°C 35.9°F2.2°C 31% 3.5 mph SSW5.6 kmh SSW 4.6 mph7.4 kmh 29.93 in1013.5 mb - 0.00 in0.0 mm 0.00 in0.0 mm
10:40 AM 68.0°F20.0°C 36.2°F2.3°C 31% 1.2 mph WSW1.9 kmh WSW 2.3 mph3.7 kmh 29.93 in1013.5 mb - 0.00 in0.0 mm 0.00 in0.0 mm
10:50 AM 69.0°F20.6°C 36.3°F2.4°C 30% 1.2 mph WSW1.9 kmh WSW 3.5 mph5.6 kmh 29.93 in1013.5 mb - 0.00 in0.0 mm 0.00 in0.0 mm
11:00 AM 68.5°F20.3°C 36.7°F2.6°C 31% 1.2 mph E1.9 kmh E 2.3 mph3.7 kmh 29.93 in1013.5 mb - 0.00 in0.0 mm 0.00 in0.0 mm
11:10 AM 69.0°F20.6°C 37.1°F2.8°C 31% 2.3 mph SW3.7 kmh SW 3.5 mph5.6 kmh 29.93 in1013.5 mb - 0.00 in0.0 mm 0.00 in0.0 mm
11:20 AM 69.7°F20.9°C 36.8°F2.7°C 30% 1.2 mph W1.9 kmh W 2.3 mph3.7 kmh 29.93 in1013.5 mb - 0.00 in0.0 mm 0.00 in0.0 mm
11:30 AM 69.9°F21.1°C 37.9°F3.3°C 31% 2.3 mph NW3.7 kmh NW 4.6 mph7.4 kmh 29.92 in1013.2 mb - 0.00 in0.0 mm 0.00 in0.0 mm
11:40 AM 69.3°F20.7°C 37.3°F2.9°C 31% 1.2 mph W1.9 kmh W 3.5 mph5.6 kmh 29.92 in1013.2 mb - 0.00 in0.0 mm 0.00 in0.0 mm
11:50 AM 69.4°F20.8°C 37.5°F3.1°C 31% 1.2 mph NW1.9 kmh NW 2.3 mph3.7 kmh 29.91 in1012.9 mb - 0.00 in0.0 mm 0.00 in0.0 mm
12:00 PM 70.6°F21.4°C 36.8°F2.7°C 29% 2.3 mph N3.7 kmh N 4.6 mph7.4 kmh 29.91 in1012.9 mb - 0.00 in0.0 mm 0.00 in0.0 mm
12:10 PM 71.8°F22.1°C 36.0°F2.2°C 27% 3.5 mph WSW5.6 kmh WSW 6.9 mph11.1 kmh 29.91 in1012.9 mb - 0.00 in0.0 mm 0.00 in0.0 mm
12:20 PM 72.0°F22.2°C 35.2°F1.8°C 26% 3.5 mph 5.6 kmh 5.8 mph9.3 kmh 29.90 in1012.5 mb - 0.00 in0.0 mm 0.00 in0.0 mm
12:30 PM 72.7°F22.6°C 35.8°F2.1°C 26% 2.3 mph WSW3.7 kmh WSW 5.8 mph9.3 kmh 29.90 in1012.5 mb - 0.00 in0.0 mm 0.00 in0.0 mm
12:40 PM 73.5°F23.1°C 35.5°F1.9°C 25% 4.6 mph WSW7.4 kmh WSW 11.5 mph18.5 kmh 29.89 in1012.2 mb - 0.00 in0.0 mm 0.00 in0.0 mm
12:50 PM 74.1°F23.4°C 33.9°F1.1°C 23% 4.6 mph WSW7.4 kmh WSW 5.8 mph9.3 kmh 29.89 in1012.2 mb - 0.00 in0.0 mm 0.00 in0.0 mm
01:00 PM 73.8°F23.2°C 33.7°F0.9°C 23% 3.5 mph WSW5.6 kmh WSW 3.5 mph5.6 kmh 29.89 in1012.2 mb - 0.00 in0.0 mm 0.00 in0.0 mm
01:10 PM 74.0°F23.3°C 33.8°F1.0°C 23% 2.3 mph SW3.7 kmh SW 3.5 mph5.6 kmh 29.88 in1011.9 mb - 0.00 in0.0 mm 0.00 in0.0 mm
01:20 PM 74.5°F23.6°C 34.2°F1.2°C 23% 2.3 mph W3.7 kmh W 3.5 mph5.6 kmh 29.88 in1011.9 mb - 0.00 in0.0 mm 0.00 in0.0 mm
01:30 PM 74.9°F23.8°C 33.5°F0.8°C 22% 4.6 mph WSW7.4 kmh WSW 6.9 mph11.1 kmh 29.87 in1011.5 mb - 0.00 in0.0 mm 0.00 in0.0 mm
01:40 PM 74.7°F23.7°C 34.4°F1.3°C 23% 1.2 mph NW1.9 kmh NW 2.3 mph3.7 kmh 29.86 in1011.2 mb - 0.00 in0.0 mm 0.00 in0.0 mm
01:50 PM 75.2°F24.0°C 34.8°F1.6°C 23% 2.3 mph NW3.7 kmh NW 5.8 mph9.3 kmh 29.86 in1011.2 mb - 0.00 in0.0 mm 0.00 in0.0 mm
02:00 PM 75.5°F24.2°C 34.0°F1.1°C 22% 1.2 mph WNW1.9 kmh WNW 2.3 mph3.7 kmh 29.85 in1010.8 mb - 0.00 in0.0 mm 0.00 in0.0 mm
02:10 PM 75.1°F23.9°C 33.6°F0.9°C 22% 4.6 mph WSW7.4 kmh WSW 10.4 mph16.7 kmh 29.85 in1010.8 mb - 0.00 in0.0 mm 0.00 in0.0 mm
02:20 PM 75.2°F24.0°C 33.7°F0.9°C 22% 4.6 mph WSW7.4 kmh WSW 8.1 mph13.0 kmh 29.85 in1010.8 mb - 0.00 in0.0 mm 0.00 in0.0 mm
02:30 PM 75.5°F24.2°C 34.0°F1.1°C 22% 4.6 mph SW7.4 kmh SW 4.6 mph7.4 kmh 29.84 in1010.5 mb - 0.00 in0.0 mm 0.00 in0.0 mm
02:40 PM 75.3°F24.1°C 34.9°F1.6°C 23% 4.6 mph W7.4 kmh W 8.1 mph13.0 kmh 29.84 in1010.5 mb - 0.00 in0.0 mm 0.00 in0.0 mm
02:50 PM 74.9°F23.8°C 34.6°F1.4°C 23% 3.5 mph WNW5.6 kmh WNW 3.5 mph5.6 kmh 29.84 in1010.5 mb - 0.00 in0.0 mm 0.00 in0.0 mm
03:00 PM 74.6°F23.7°C 34.3°F1.3°C 23% 2.3 mph SW3.7 kmh SW 5.8 mph9.3 kmh 29.84 in1010.5 mb - 0.00 in0.0 mm 0.00 in0.0 mm
03:10 PM 74.8°F23.8°C 34.5°F1.4°C 23% 3.5 mph W5.6 kmh W 6.9 mph11.1 kmh 29.83 in1010.2 mb - 0.00 in0.0 mm 0.00 in0.0 mm
03:20 PM 74.7°F23.7°C 34.4°F1.3°C 23% 2.3 mph NW3.7 kmh NW 3.5 mph5.6 kmh 29.83 in1010.2 mb - 0.00 in0.0 mm 0.00 in0.0 mm
03:30 PM 74.8°F23.8°C 34.5°F1.4°C 23% 1.2 mph SW1.9 kmh SW 3.5 mph5.6 kmh 29.82 in1009.8 mb - 0.00 in0.0 mm 0.00 in0.0 mm
03:40 PM 74.2°F23.4°C 35.1°F1.7°C 24% 2.3 mph WNW3.7 kmh WNW 3.5 mph5.6 kmh 29.82 in1009.8 mb - 0.00 in0.0 mm 0.00 in0.0 mm
03:50 PM 74.4°F23.6°C 35.2°F1.8°C 24% 1.2 mph WNW1.9 kmh WNW 4.6 mph7.4 kmh 29.82 in1009.8 mb - 0.00 in0.0 mm 0.00 in0.0 mm
04:00 PM 74.2°F23.4°C 35.1°F1.7°C 24% 2.3 mph WNW3.7 kmh WNW 3.5 mph5.6 kmh 29.82 in1009.8 mb - 0.00 in0.0 mm 0.00 in0.0 mm
04:10 PM 74.3°F23.5°C 34.1°F1.2°C 23% 1.2 mph NNE1.9 kmh NNE 3.5 mph5.6 kmh 29.82 in1009.8 mb - 0.00 in0.0 mm 0.00 in0.0 mm
04:20 PM 74.0°F23.3°C 33.8°F1.0°C 23% 2.3 mph WSW3.7 kmh WSW 4.6 mph7.4 kmh 29.81 in1009.5 mb - 0.00 in0.0 mm 0.00 in0.0 mm
04:30 PM 73.4°F23.0°C 34.4°F1.3°C 24% 2.3 mph NW3.7 kmh NW 8.1 mph13.0 kmh 29.81 in1009.5 mb - 0.00 in0.0 mm 0.00 in0.0 mm
04:40 PM 73.3°F22.9°C 34.3°F1.3°C 24% 3.5 mph NW5.6 kmh NW 5.8 mph9.3 kmh 29.81 in1009.5 mb - 0.00 in0.0 mm 0.00 in0.0 mm
04:50 PM 72.7°F22.6°C 33.8°F1.0°C 24% 1.2 mph W1.9 kmh W 4.6 mph7.4 kmh 29.81 in1009.5 mb - 0.00 in0.0 mm 0.00 in0.0 mm
05:00 PM 72.6°F22.6°C 33.7°F0.9°C 24% 2.3 mph WSW3.7 kmh WSW 3.5 mph5.6 kmh 29.80 in1009.1 mb - 0.00 in0.0 mm 0.00 in0.0 mm
05:10 PM 72.4°F22.4°C 33.5°F0.8°C 24% 1.2 mph NNE1.9 kmh NNE 2.3 mph3.7 kmh 29.81 in1009.5 mb - 0.00 in0.0 mm 0.00 in0.0 mm
05:20 PM 71.9°F22.2°C 33.1°F0.6°C 24% 4.6 mph SW7.4 kmh SW 6.9 mph11.1 kmh 29.81 in1009.5 mb - 0.00 in0.0 mm 0.00 in0.0 mm
05:30 PM 71.3°F21.8°C 32.6°F0.3°C 24% 2.3 mph SSW3.7 kmh SSW 3.5 mph5.6 kmh 29.81 in1009.5 mb - 0.00 in0.0 mm 0.00 in0.0 mm
05:40 PM 70.9°F21.6°C 32.2°F0.1°C 24% 2.3 mph WNW3.7 kmh WNW 3.5 mph5.6 kmh 29.81 in1009.5 mb - 0.00 in0.0 mm 0.00 in0.0 mm
05:50 PM 70.6°F21.4°C 33.0°F0.6°C 25% 2.3 mph WSW3.7 kmh WSW 3.5 mph5.6 kmh 29.81 in1009.5 mb - 0.00 in0.0 mm 0.00 in0.0 mm
06:00 PM 70.3°F21.3°C 32.8°F0.4°C 25% 3.5 mph W5.6 kmh W 4.6 mph7.4 kmh 29.81 in1009.5 mb - 0.00 in0.0 mm 0.00 in0.0 mm
06:10 PM 69.8°F21.0°C 34.3°F1.3°C 27% 4.6 mph WSW7.4 kmh WSW 8.1 mph13.0 kmh 29.82 in1009.8 mb - 0.00 in0.0 mm 0.00 in0.0 mm
06:20 PM 69.2°F20.7°C 33.8°F1.0°C 27% 2.3 mph W3.7 kmh W 2.3 mph3.7 kmh 29.82 in1009.8 mb - 0.00 in0.0 mm 0.00 in0.0 mm
06:30 PM 68.9°F20.5°C 33.5°F0.8°C 27% 3.5 mph WSW5.6 kmh WSW 4.6 mph7.4 kmh 29.82 in1009.8 mb - 0.00 in0.0 mm 0.00 in0.0 mm
06:40 PM 68.3°F20.2°C 33.0°F0.6°C 27% 2.3 mph WSW3.7 kmh WSW 5.8 mph9.3 kmh 29.82 in1009.8 mb - 0.00 in0.0 mm 0.00 in0.0 mm
06:50 PM 67.7°F19.8°C 33.4°F0.8°C 28% 4.6 mph WSW7.4 kmh WSW 8.1 mph13.0 kmh 29.82 in1009.8 mb - 0.00 in0.0 mm 0.00 in0.0 mm
07:00 PM 67.2°F19.6°C 33.0°F0.6°C 28% 3.5 mph W5.6 kmh W 6.9 mph11.1 kmh 29.82 in1009.8 mb - 0.00 in0.0 mm 0.00 in0.0 mm
07:10 PM 66.8°F19.3°C 31.7°F-0.2°C 27% 3.5 mph WSW5.6 kmh WSW 9.2 mph14.8 kmh 29.83 in1010.2 mb - 0.00 in0.0 mm 0.00 in0.0 mm
07:20 PM 66.4°F19.1°C 31.4°F-0.3°C 27% 2.3 mph WSW3.7 kmh WSW 3.5 mph5.6 kmh 29.84 in1010.5 mb - 0.00 in0.0 mm 0.00 in0.0 mm
07:30 PM 66.0°F18.9°C 32.0°F0.0°C 28% 3.5 mph WSW5.6 kmh WSW 5.8 mph9.3 kmh 29.84 in1010.5 mb - 0.00 in0.0 mm 0.00 in0.0 mm
07:40 PM 65.7°F18.7°C 31.7°F-0.2°C 28% 4.6 mph SW7.4 kmh SW 5.8 mph9.3 kmh 29.85 in1010.8 mb - 0.00 in0.0 mm 0.00 in0.0 mm
07:50 PM 65.3°F18.5°C 31.3°F-0.4°C 28% 5.8 mph WSW9.3 kmh WSW 10.4 mph16.7 kmh 29.85 in1010.8 mb - 0.00 in0.0 mm 0.00 in0.0 mm
08:00 PM 65.0°F18.3°C 31.9°F-0.1°C 29% 4.6 mph SW7.4 kmh SW 6.9 mph11.1 kmh 29.85 in1010.8 mb - 0.00 in0.0 mm 0.00 in0.0 mm
08:10 PM 64.7°F18.2°C 31.7°F-0.2°C 29% 4.6 mph SW7.4 kmh SW 8.1 mph13.0 kmh 29.86 in1011.2 mb - 0.00 in0.0 mm 0.00 in0.0 mm
08:20 PM 64.4°F18.0°C 32.3°F0.2°C 30% 4.6 mph SW7.4 kmh SW 8.1 mph13.0 kmh 29.86 in1011.2 mb - 0.00 in0.0 mm 0.00 in0.0 mm
08:30 PM 64.1°F17.8°C 31.2°F-0.4°C 29% 5.8 mph SW9.3 kmh SW 11.5 mph18.5 kmh 29.87 in1011.5 mb - 0.00 in0.0 mm 0.00 in0.0 mm
08:40 PM 63.8°F17.7°C 31.8°F-0.1°C 30% 2.3 mph SW3.7 kmh SW 4.6 mph7.4 kmh 29.87 in1011.5 mb - 0.00 in0.0 mm 0.00 in0.0 mm
08:50 PM 63.5°F17.5°C 32.3°F0.2°C 31% 3.5 mph SW5.6 kmh SW 6.9 mph11.1 kmh 29.87 in1011.5 mb - 0.00 in0.0 mm 0.00 in0.0 mm
09:00 PM 63.1°F17.3°C 33.5°F0.8°C 33% 3.5 mph WSW5.6 kmh WSW 5.8 mph9.3 kmh 29.88 in1011.9 mb - 0.00 in0.0 mm 0.00 in0.0 mm
09:10 PM 62.7°F17.1°C 33.2°F0.7°C 33% 4.6 mph WSW7.4 kmh WSW 9.2 mph14.8 kmh 29.88 in1011.9 mb - 0.00 in0.0 mm 0.00 in0.0 mm
09:20 PM 62.4°F16.9°C 33.6°F0.9°C 34% 4.6 mph SW7.4 kmh SW 4.6 mph7.4 kmh 29.88 in1011.9 mb - 0.00 in0.0 mm 0.00 in0.0 mm
09:30 PM 62.0°F16.7°C 34.7°F1.5°C 36% 3.5 mph WSW5.6 kmh WSW 4.6 mph7.4 kmh 29.88 in1011.9 mb - 0.00 in0.0 mm 0.00 in0.0 mm
09:40 PM 61.7°F16.5°C 35.8°F2.1°C 38% 3.5 mph WSW5.6 kmh WSW 5.8 mph9.3 kmh 29.89 in1012.2 mb - 0.00 in0.0 mm 0.00 in0.0 mm
09:50 PM 61.4°F16.3°C 35.5°F1.9°C 38% 2.3 mph SW3.7 kmh SW 3.5 mph5.6 kmh 29.89 in1012.2 mb - 0.00 in0.0 mm 0.00 in0.0 mm
10:00 PM 60.9°F16.1°C 36.4°F2.4°C 40% 2.3 mph WSW3.7 kmh WSW 4.6 mph7.4 kmh 29.89 in1012.2 mb - 0.00 in0.0 mm 0.00 in0.0 mm
10:10 PM 60.5°F15.8°C 37.3°F2.9°C 42% 2.3 mph WSW3.7 kmh WSW 3.5 mph5.6 kmh 29.90 in1012.5 mb - 0.00 in0.0 mm 0.00 in0.0 mm
10:20 PM 60.2°F15.7°C 38.2°F3.4°C 44% 4.6 mph WSW7.4 kmh WSW 5.8 mph9.3 kmh 29.90 in1012.5 mb - 0.00 in0.0 mm 0.00 in0.0 mm
10:30 PM 59.8°F15.4°C 39.0°F3.9°C 46% 3.5 mph SW5.6 kmh SW 4.6 mph7.4 kmh 29.90 in1012.5 mb - 0.00 in0.0 mm 0.00 in0.0 mm
10:40 PM 59.5°F15.3°C 39.8°F4.3°C 48% 2.3 mph SW3.7 kmh SW 4.6 mph7.4 kmh 29.90 in1012.5 mb - 0.00 in0.0 mm 0.00 in0.0 mm
10:50 PM 59.1°F15.1°C 39.9°F4.4°C 49% 2.3 mph SW3.7 kmh SW 6.9 mph11.1 kmh 29.90 in1012.5 mb - 0.00 in0.0 mm 0.00 in0.0 mm
11:00 PM 58.6°F14.8°C 40.0°F4.4°C 50% 3.5 mph SW5.6 kmh SW 3.5 mph5.6 kmh 29.90 in1012.5 mb - 0.00 in0.0 mm 0.00 in0.0 mm
11:10 PM 58.2°F14.6°C 40.6°F4.8°C 52% 3.5 mph SW5.6 kmh SW 8.1 mph13.0 kmh 29.90 in1012.5 mb - 0.00 in0.0 mm 0.00 in0.0 mm
11:20 PM 57.9°F14.4°C 40.9°F4.9°C 53% 1.2 mph WSW1.9 kmh WSW 3.5 mph5.6 kmh 29.90 in1012.5 mb - 0.00 in0.0 mm 0.00 in0.0 mm
11:30 PM 57.7°F14.3°C 41.1°F5.1°C 54% 1.2 mph WSW1.9 kmh WSW 3.5 mph5.6 kmh 29.90 in1012.5 mb - 0.00 in0.0 mm 0.00 in0.0 mm
11:40 PM 57.3°F14.1°C 40.8°F4.9°C 54% Calm Calm -- 29.90 in1012.5 mb - 0.00 in0.0 mm 0.00 in0.0 mm
11:50 PM 57.1°F13.9°C 40.6°F4.8°C 54% Calm Calm 1.2 mph1.9 kmh 29.90 in1012.5 mb - 0.00 in0.0 mm 0.00 in0.0 mm